Maersk Wllemstadt — 3FTJ8 — position and weather

sailwx.info

Track history (hours):
 
Tides and Currents Weather Stations Pressure Air Temp Water Temp Dewpoint Dewpoint Depression Visibility Wind Speed Wind Dir Waves Ship Positions

Maersk Wllemstadt

Last reported at 2017-Nov-18 13:30 UTC. Time now 2017-Nov-21 08:24 UTC.
Position N 11°08' W 075°00'.

Length 171 m; draft 8.2 m.

Type: Ship (hazmat cat C). MMSI: 370209000.

Date/timePositionNaut miles runAvg speedWind from/ knotsBaromVisibWave heightAir tempDewpointWater temp
2017-Nov-18 13:30N 11°08' W 075°00'713.6
2017-Nov-18 13:00N 11°07' W 074°53'510.4
2017-Nov-18 12:30N 11°03' W 074°50'611.3
2017-Nov-18 11:59N 10°59' W 074°45'1 1.6
2017-Nov-18 11:27N 10°58' W 074°46'0 0.0
2017-Nov-18 10:57N 10°58' W 074°46'0 0.0
2017-Nov-18 08:33N 10°58' W 074°46'0 0.0
2017-Nov-18 02:45N 10°58' W 074°46'0 0.0
2017-Nov-18 02:27N 10°58' W 074°46'0 0.0
2017-Nov-18 01:45N 10°58' W 074°46'0 0.0
2017-Nov-18 01:21N 10°58' W 074°46'0 0.0
2017-Nov-18 00:57N 10°58' W 074°46'0 0.0
2017-Nov-18 00:15N 10°58' W 074°46'0 0.0
2017-Nov-17 23:57N 10°58' W 074°46'0 0.0
2017-Nov-17 23:27N 10°58' W 074°46'0 0.0
2017-Nov-17 20:27N 10°58' W 074°46'0 0.0
2017-Nov-17 19:51N 10°58' W 074°46'0 0.0
2017-Nov-17 19:21N 10°58' W 074°46'0 0.4
2017-Nov-17 19:00N 10°58' W 074°45'2 3.7
2017-Nov-17 18:30N 11°00' W 074°46'4 7.4
2017-Nov-17 18:00N 11°02' W 074°49'2 4.8
2017-Nov-17 17:30N 11°04' W 074°51'4 7.7
2017-Nov-17 17:00N 11°08' W 074°52'4 8.5
2017-Nov-17 16:29N 11°07' W 074°57'4 7.8
2017-Nov-17 16:00N 11°07' W 075°00'4 7.9
2017-Nov-17 15:30N 11°07' W 075°05'  
2017-Nov-13 01:58N 10°58' W 074°46'0 0.0
2017-Nov-13 01:28N 10°58' W 074°46'0 0.0
2017-Nov-13 00:58N 10°58' W 074°46'0 0.0
2017-Nov-13 00:28N 10°58' W 074°46'0 0.0
2017-Nov-12 23:58N 10°58' W 074°46'0 0.0
2017-Nov-12 23:28N 10°58' W 074°46'0 0.0
2017-Nov-12 22:58N 10°58' W 074°46'0 0.0
2017-Nov-12 22:28N 10°58' W 074°46'0 0.0
2017-Nov-12 21:58N 10°58' W 074°46'0 0.0
2017-Nov-12 21:28N 10°58' W 074°46'0 0.0
2017-Nov-12 20:58N 10°58' W 074°46'0 0.0
2017-Nov-12 20:28N 10°58' W 074°46'0 0.0
2017-Nov-12 19:58N 10°58' W 074°46'0 0.0
2017-Nov-12 19:28N 10°58' W 074°46'0 0.0
2017-Nov-12 18:58N 10°58' W 074°46'0 0.0
2017-Nov-12 18:28N 10°58' W 074°46'0 0.0
2017-Nov-12 17:58N 10°58' W 074°46'0 0.0
2017-Nov-12 17:28N 10°58' W 074°46'0 0.0
2017-Nov-12 16:58N 10°58' W 074°46'0 0.0
2017-Nov-12 14:01N 10°58' W 074°46'0 0.0
2017-Nov-12 13:01N 10°58' W 074°46'0 0.1
2017-Nov-12 12:55N 10°58' W 074°46'0 0.0
2017-Nov-12 12:25N 10°58' W 074°46'0 0.0
2017-Nov-12 11:55N 10°58' W 074°46'0 0.0
2017-Nov-12 11:25N 10°58' W 074°46'0 0.0
2017-Nov-12 09:43N 10°58' W 074°46'0 0.0
2017-Nov-12 08:01N 10°58' W 074°46'0 0.1
2017-Nov-12 07:55N 10°58' W 074°46'0 0.0
2017-Nov-12 07:25N 10°58' W 074°46'0 0.0
2017-Nov-12 06:55N 10°58' W 074°46'0 0.0
2017-Nov-12 06:25N 10°58' W 074°46'0 0.0
2017-Nov-12 05:55N 10°58' W 074°46'0 0.0
2017-Nov-12 05:25N 10°58' W 074°46'0 0.0
2017-Nov-12 04:49N 10°58' W 074°46'0 0.0
2017-Nov-12 04:25N 10°58' W 074°46'0 0.0
2017-Nov-12 04:00N 10°58' W 074°46'1 1.2
2017-Nov-12 03:30N 10°59' W 074°45'48 7.5
2017-Nov-11 21:08N 10°48' W 075°33'512.0
2017-Nov-11 20:44N 10°43' W 075°35'812.2
2017-Nov-11 20:03N 10°36' W 075°38'111.9
2017-Nov-11 20:00N 10°35' W 075°38'612.3
2017-Nov-11 19:30N 10°30' W 075°41'612.1
2017-Nov-11 19:00N 10°24' W 075°44'4 9.0
2017-Nov-11 18:30N 10°21' W 075°41'611.5
2017-Nov-11 18:00N 10°19' W 075°35'4 7.8
2017-Nov-11 17:30N 10°21' W 075°32'3 6.6
2017-Nov-11 17:00N 10°24' W 075°32'0 0.1
2017-Nov-11 16:23N 10°24' W 075°32'0 0.0
2017-Nov-11 15:59N 10°24' W 075°32'0 0.0
2017-Nov-11 15:29N 10°24' W 075°32'0 0.0
2017-Nov-11 14:59N 10°24' W 075°32'0 0.0
2017-Nov-11 14:29N 10°24' W 075°32'0 0.0
2017-Nov-11 13:59N 10°24' W 075°32'0 0.3
2017-Nov-11 13:30N 10°24' W 075°32'1 1.0
2017-Nov-11 13:00N 10°24' W 075°32'0 0.1
2017-Nov-11 12:26N 10°24' W 075°32'0 0.0
2017-Nov-11 11:56N 10°24' W 075°32'0 0.0
2017-Nov-11 11:29N 10°24' W 075°32'0 0.0
2017-Nov-11 10:59N 10°24' W 075°32'0 0.0
2017-Nov-11 10:26N 10°24' W 075°32'0 0.0
2017-Nov-11 09:56N 10°24' W 075°32'0 0.0
2017-Nov-11 09:26N 10°24' W 075°32'0 0.0
2017-Nov-11 08:05N 10°24' W 075°32'0 0.0
2017-Nov-11 07:56N 10°24' W 075°32'0 0.0
2017-Nov-11 07:26N 10°24' W 075°32'0 0.0
2017-Nov-11 06:56N 10°24' W 075°32'0 0.0
2017-Nov-11 06:26N 10°24' W 075°32'0 0.0
2017-Nov-11 05:56N 10°24' W 075°32'0 0.0
2017-Nov-11 05:26N 10°24' W 075°32'0 0.0
2017-Nov-11 04:56N 10°24' W 075°32'0 0.0
2017-Nov-11 04:26N 10°24' W 075°32'0 0.0
2017-Nov-11 03:56N 10°24' W 075°32'0 0.0
2017-Nov-11 03:26N 10°24' W 075°32'0 0.0
2017-Nov-11 02:56N 10°24' W 075°32'0 0.0
2017-Nov-11 02:26N 10°24' W 075°32'0 0.0
2017-Nov-11 01:59N 10°24' W 075°32'0 0.0
2017-Nov-11 01:26N 10°24' W 075°32'0 1.0
2017-Nov-11 01:00N 10°24' W 075°32'2 4.8
2017-Nov-11 00:30N 10°22' W 075°32'5 9.0
2017-Nov-11 00:00N 10°19' W 075°36'3 6.8
2017-Nov-10 23:30N 10°20' W 075°39'3 6.3
2017-Nov-10 23:00N 10°21' W 075°42'3 6.5
2017-Nov-10 22:30N 10°22' W 075°45'4 7.8
2017-Nov-10 22:00N 10°26' W 075°43'3 5.1
2017-Nov-10 21:29N 10°28' W 075°42'611.3
2017-Nov-10 21:00N 10°33' W 075°40'611.9
2017-Nov-10 20:29N 10°39' W 075°37'4611.4
2017-Nov-10 16:29N 11°08' W 075°02'611.8
2017-Nov-10 16:00N 11°11' W 074°57'611.8
2017-Nov-10 15:30N 11°14' W 074°51'  
Track history (hours):
 
Tides and Currents Weather Stations Pressure Air Temp Water Temp Dewpoint Dewpoint Depression Visibility Wind Speed Wind Dir Waves Ship Positions

Maersk Wllemstadt

Last reported at 2017-Nov-18 13:30 UTC. Time now 2017-Nov-21 08:24 UTC.
Position N 11°08' W 075°00'.

Length 171 m; draft 8.2 m.

Type: Ship (hazmat cat C). MMSI: 370209000.

Date/timePositionNaut miles runAvg speedWind from/ knotsBaromVisibWave heightAir tempDewpointWater temp
2017-Nov-18 13:30N 11°08' W 075°00'713.6
2017-Nov-18 13:00N 11°07' W 074°53'510.4
2017-Nov-18 12:30N 11°03' W 074°50'611.3
2017-Nov-18 11:59N 10°59' W 074°45'1 1.6
2017-Nov-18 11:27N 10°58' W 074°46'0 0.0
2017-Nov-18 10:57N 10°58' W 074°46'0 0.0
2017-Nov-18 08:33N 10°58' W 074°46'0 0.0
2017-Nov-18 02:45N 10°58' W 074°46'0 0.0
2017-Nov-18 02:27N 10°58' W 074°46'0 0.0
2017-Nov-18 01:45N 10°58' W 074°46'0 0.0
2017-Nov-18 01:21N 10°58' W 074°46'0 0.0
2017-Nov-18 00:57N 10°58' W 074°46'0 0.0
2017-Nov-18 00:15N 10°58' W 074°46'0 0.0
2017-Nov-17 23:57N 10°58' W 074°46'0 0.0
2017-Nov-17 23:27N 10°58' W 074°46'0 0.0
2017-Nov-17 20:27N 10°58' W 074°46'0 0.0
2017-Nov-17 19:51N 10°58' W 074°46'0 0.0
2017-Nov-17 19:21N 10°58' W 074°46'0 0.4
2017-Nov-17 19:00N 10°58' W 074°45'2 3.7
2017-Nov-17 18:30N 11°00' W 074°46'4 7.4
2017-Nov-17 18:00N 11°02' W 074°49'2 4.8
2017-Nov-17 17:30N 11°04' W 074°51'4 7.7
2017-Nov-17 17:00N 11°08' W 074°52'4 8.5
2017-Nov-17 16:29N 11°07' W 074°57'4 7.8
2017-Nov-17 16:00N 11°07' W 075°00'4 7.9
2017-Nov-17 15:30N 11°07' W 075°05'  
2017-Nov-13 01:58N 10°58' W 074°46'0 0.0
2017-Nov-13 01:28N 10°58' W 074°46'0 0.0
2017-Nov-13 00:58N 10°58' W 074°46'0 0.0
2017-Nov-13 00:28N 10°58' W 074°46'0 0.0
2017-Nov-12 23:58N 10°58' W 074°46'0 0.0
2017-Nov-12 23:28N 10°58' W 074°46'0 0.0
2017-Nov-12 22:58N 10°58' W 074°46'0 0.0
2017-Nov-12 22:28N 10°58' W 074°46'0 0.0
2017-Nov-12 21:58N 10°58' W 074°46'0 0.0
2017-Nov-12 21:28N 10°58' W 074°46'0 0.0
2017-Nov-12 20:58N 10°58' W 074°46'0 0.0
2017-Nov-12 20:28N 10°58' W 074°46'0 0.0
2017-Nov-12 19:58N 10°58' W 074°46'0 0.0
2017-Nov-12 19:28N 10°58' W 074°46'0 0.0
2017-Nov-12 18:58N 10°58' W 074°46'0 0.0
2017-Nov-12 18:28N 10°58' W 074°46'0 0.0
2017-Nov-12 17:58N 10°58' W 074°46'0 0.0
2017-Nov-12 17:28N 10°58' W 074°46'0 0.0
2017-Nov-12 16:58N 10°58' W 074°46'0 0.0
2017-Nov-12 14:01N 10°58' W 074°46'0 0.0
2017-Nov-12 13:01N 10°58' W 074°46'0 0.1
2017-Nov-12 12:55N 10°58' W 074°46'0 0.0
2017-Nov-12 12:25N 10°58' W 074°46'0 0.0
2017-Nov-12 11:55N 10°58' W 074°46'0 0.0
2017-Nov-12 11:25N 10°58' W 074°46'0 0.0
2017-Nov-12 09:43N 10°58' W 074°46'0 0.0
2017-Nov-12 08:01N 10°58' W 074°46'0 0.1
2017-Nov-12 07:55N 10°58' W 074°46'0 0.0
2017-Nov-12 07:25N 10°58' W 074°46'0 0.0
2017-Nov-12 06:55N 10°58' W 074°46'0 0.0
2017-Nov-12 06:25N 10°58' W 074°46'0 0.0
2017-Nov-12 05:55N 10°58' W 074°46'0 0.0
2017-Nov-12 05:25N 10°58' W 074°46'0 0.0
2017-Nov-12 04:49N 10°58' W 074°46'0 0.0
2017-Nov-12 04:25N 10°58' W 074°46'0 0.0
2017-Nov-12 04:00N 10°58' W 074°46'1 1.2
2017-Nov-12 03:30N 10°59' W 074°45'48 7.5
2017-Nov-11 21:08N 10°48' W 075°33'512.0
2017-Nov-11 20:44N 10°43' W 075°35'812.2
2017-Nov-11 20:03N 10°36' W 075°38'111.9
2017-Nov-11 20:00N 10°35' W 075°38'612.3
2017-Nov-11 19:30N 10°30' W 075°41'612.1
2017-Nov-11 19:00N 10°24' W 075°44'4 9.0
2017-Nov-11 18:30N 10°21' W 075°41'611.5
2017-Nov-11 18:00N 10°19' W 075°35'4 7.8
2017-Nov-11 17:30N 10°21' W 075°32'3 6.6
2017-Nov-11 17:00N 10°24' W 075°32'0 0.1
2017-Nov-11 16:23N 10°24' W 075°32'0 0.0
2017-Nov-11 15:59N 10°24' W 075°32'0 0.0
2017-Nov-11 15:29N 10°24' W 075°32'0 0.0
2017-Nov-11 14:59N 10°24' W 075°32'0 0.0
2017-Nov-11 14:29N 10°24' W 075°32'0 0.0
2017-Nov-11 13:59N 10°24' W 075°32'0 0.3
2017-Nov-11 13:30N 10°24' W 075°32'1 1.0
2017-Nov-11 13:00N 10°24' W 075°32'0 0.1
2017-Nov-11 12:26N 10°24' W 075°32'0 0.0
2017-Nov-11 11:56N 10°24' W 075°32'0 0.0
2017-Nov-11 11:29N 10°24' W 075°32'0 0.0
2017-Nov-11 10:59N 10°24' W 075°32'0 0.0
2017-Nov-11 10:26N 10°24' W 075°32'0 0.0
2017-Nov-11 09:56N 10°24' W 075°32'0 0.0
2017-Nov-11 09:26N 10°24' W 075°32'0 0.0
2017-Nov-11 08:05N 10°24' W 075°32'0 0.0
2017-Nov-11 07:56N 10°24' W 075°32'0 0.0
2017-Nov-11 07:26N 10°24' W 075°32'0 0.0
2017-Nov-11 06:56N 10°24' W 075°32'0 0.0
2017-Nov-11 06:26N 10°24' W 075°32'0 0.0
2017-Nov-11 05:56N 10°24' W 075°32'0 0.0
2017-Nov-11 05:26N 10°24' W 075°32'0 0.0
2017-Nov-11 04:56N 10°24' W 075°32'0 0.0
2017-Nov-11 04:26N 10°24' W 075°32'0 0.0
2017-Nov-11 03:56N 10°24' W 075°32'0 0.0
2017-Nov-11 03:26N 10°24' W 075°32'0 0.0
2017-Nov-11 02:56N 10°24' W 075°32'0 0.0
2017-Nov-11 02:26N 10°24' W 075°32'0 0.0
2017-Nov-11 01:59N 10°24' W 075°32'0 0.0
2017-Nov-11 01:26N 10°24' W 075°32'0 1.0
2017-Nov-11 01:00N 10°24' W 075°32'2 4.8
2017-Nov-11 00:30N 10°22' W 075°32'5 9.0
2017-Nov-11 00:00N 10°19' W 075°36'3 6.8
2017-Nov-10 23:30N 10°20' W 075°39'3 6.3
2017-Nov-10 23:00N 10°21' W 075°42'3 6.5
2017-Nov-10 22:30N 10°22' W 075°45'4 7.8
2017-Nov-10 22:00N 10°26' W 075°43'3 5.1
2017-Nov-10 21:29N 10°28' W 075°42'611.3
2017-Nov-10 21:00N 10°33' W 075°40'611.9
2017-Nov-10 20:29N 10°39' W 075°37'4611.4
2017-Nov-10 16:29N 11°08' W 075°02'611.8
2017-Nov-10 16:00N 11°11' W 074°57'611.8
2017-Nov-10 15:30N 11°14' W 074°51'  

Dump ship's entire track history